Terminal Aerodrome Forecast
Issued by NWS

Home | Current Version | Previous Version | Text Only | Print | Product List | Glossary On
Versions: 1 2 3 4 5 6 7 8 9 10 11 12
000
FTUS44 KLZK 301100
TAFHOT
TAF
KHOT 301137Z 3012/3112 01005KT P6SM BKN250
     FM301500 08006KT P6SM BKN250
     FM310000 08003KT P6SM OVC250=

USA.gov is the U.S. government's official web portal to all federal, state and local government web resources and services.